»·PEaware :: N7274H KBFL-KMHV

N7274H :: KBFL-KMHV

FLIGHT INFORMATION

Flight Status: Arrived
Operator: Privately registered:
United States
More flights under this callsign
Pilot: Anonymous 16342 (16342)
Aircraft: CESSNA 172 SKYHAWK
(C172)
More flights by this aircraft type
Origin: KBFL Meadows
United States
Destination: KMHV Mojave
United States
More flights between these airports :: More routes between these airports
Route: DCT
File this flight plan on PilotEdge
Remarks: CAT-05 Flight
Altitude:
(Current/Filed)
5,500ft
Speed:
(Current/Filed)
130kts
Departed: 24-Nov-17 04:42 PM
Arrived: 24-Nov-17 05:13 PM
Distance/Time
Traveled:
50nm/0:31
Distance/Time
To Go:
Arrived

Flight Plot

Page will automatically refresh every two minutes.


Map Options




Map Legend


Flown Route
Filed Route
Departure Airport
Arrival Airport
Navaid (VOR, NDB)
Fix

Horizontal Profiles

Position Reports

Time Latitude Longitude Heading Altitude Ground
Speed
24-Nov-17 16:14 35.428767 -119.055773 309 510ft 0kts
24-Nov-17 16:15 35.428767 -119.055773 309 510ft 0kts
24-Nov-17 16:16 35.428768 -119.055774 309 510ft 0kts
24-Nov-17 16:17 35.428772 -119.055780 308 510ft 0kts
24-Nov-17 16:18 35.428775 -119.055785 308 510ft 0kts
24-Nov-17 16:19 35.428778 -119.055789 308 510ft 0kts
24-Nov-17 16:20 35.428781 -119.055794 308 510ft 0kts
24-Nov-17 16:21 35.428784 -119.055799 308 510ft 0kts
24-Nov-17 16:22 35.428788 -119.055803 308 510ft 0kts
24-Nov-17 16:23 35.428791 -119.055808 308 510ft 0kts
24-Nov-17 16:24 35.428794 -119.055813 308 510ft 0kts
24-Nov-17 16:25 35.428797 -119.055818 308 510ft 0kts
24-Nov-17 16:27 35.428803 -119.055827 308 510ft 0kts
24-Nov-17 16:28 35.428806 -119.055832 308 510ft 0kts
24-Nov-17 16:29 35.428809 -119.055836 308 510ft 0kts
24-Nov-17 16:30 35.428812 -119.055841 308 510ft 0kts
24-Nov-17 16:31 35.428816 -119.055846 308 510ft 0kts
24-Nov-17 16:32 35.428819 -119.055850 308 510ft 0kts
24-Nov-17 16:33 35.428822 -119.055855 308 510ft 0kts
24-Nov-17 16:34 35.428832 -119.055870 310 510ft 0kts
24-Nov-17 16:35 35.428835 -119.055875 310 510ft 0kts
24-Nov-17 16:36 35.428838 -119.055880 310 510ft 0kts
24-Nov-17 16:37 35.428842 -119.055884 310 510ft 0kts
24-Nov-17 16:38 35.428845 -119.055889 310 510ft 0kts
24-Nov-17 16:39 35.428848 -119.055893 310 510ft 0kts
24-Nov-17 16:40 35.428899 -119.055913 15 510ft 3kts
24-Nov-17 16:41 35.428923 -119.055889 54 510ft 0kts
24-Nov-17 16:42 35.428926 -119.055884 54 510ft 0kts
24-Nov-17 16:43 35.428448 -119.054317 136 510ft 18kts
24-Nov-17 16:44 35.425914 -119.050916 48 510ft 0kts
24-Nov-17 16:45 35.425915 -119.050914 48 510ft 0kts
24-Nov-17 16:46 35.425946 -119.050869 49 510ft 5kts
24-Nov-17 16:47 35.432669 -119.058412 312 574ft 72kts
24-Nov-17 16:48 35.451955 -119.073122 19 1190ft 104kts
24-Nov-17 16:49 35.474278 -119.054767 37 2070ft 101kts
24-Nov-17 16:50 35.472941 -119.024533 118 2765ft 111kts
24-Nov-17 16:51 35.457983 -118.991239 117 3463ft 107kts
24-Nov-17 16:52 35.443005 -118.959113 118 4165ft 113kts
24-Nov-17 16:53 35.427299 -118.925700 119 4860ft 107kts
24-Nov-17 16:54 35.412698 -118.894625 119 5488ft 108kts
24-Nov-17 16:55 35.395949 -118.859077 119 5509ft 126kts
24-Nov-17 16:56 35.377649 -118.820247 119 5520ft 140kts
24-Nov-17 16:57 35.359497 -118.781770 119 5518ft 119kts
24-Nov-17 16:58 35.342437 -118.745628 119 5537ft 131kts
24-Nov-17 16:59 35.324691 -118.708075 119 5546ft 117kts
24-Nov-17 17:00 35.308677 -118.674213 119 5562ft 114kts
24-Nov-17 17:01 35.292799 -118.640675 120 5572ft 112kts
24-Nov-17 17:02 35.276433 -118.606162 120 5582ft 126kts
24-Nov-17 17:03 35.251747 -118.576404 137 5593ft 121kts
24-Nov-17 17:04 35.227137 -118.548543 137 5600ft 120kts
24-Nov-17 17:05 35.201829 -118.519963 137 5600ft 130kts
24-Nov-17 17:06 35.176234 -118.491005 137 5608ft 117kts
24-Nov-17 17:07 35.151988 -118.463597 137 5607ft 122kts
24-Nov-17 17:08 35.128650 -118.433752 126 5612ft 116kts
24-Nov-17 17:09 35.113848 -118.397566 106 5613ft 129kts
24-Nov-17 17:10 35.111448 -118.355446 86 5594ft 118kts
24-Nov-17 17:11 35.107831 -118.317103 132 5570ft 114kts
24-Nov-17 17:12 35.092022 -118.282106 112 5532ft 130kts
24-Nov-17 17:13 35.078807 -118.241762 112 5503ft 121kts
24-Nov-17 17:14 35.066008 -118.202515 111 4484ft 125kts
24-Nov-17 17:15 35.052293 -118.164583 118 3588ft 109kts
24-Nov-17 17:16 35.039827 -118.135861 120 3582ft 92kts
24-Nov-17 17:17 35.041480 -118.127952 341 3106ft 80kts
24-Nov-17 17:18 35.051897 -118.139448 300 2793ft 18kts
24-Nov-17 17:19 35.056802 -118.145439 316 2794ft 37kts
24-Nov-17 17:20 35.057546 -118.147914 268 2794ft 0kts
24-Nov-17 17:21 35.057562 -118.148673 271 2794ft 11kts
24-Nov-17 17:22 35.057079 -118.151240 178 2794ft 4kts
24-Nov-17 17:23 35.056992 -118.151241 175 2794ft 0kts
24-Nov-17 17:24 35.056992 -118.151241 175 2794ft 0kts

Navigation Log

Ident Type
Flight plan parsing failed, navigation log unavailable